Gould, Arkansas
Current Conditions -  °F | °C
As of 6:53 AM on Thursday 23 Oct 2014 (Local Time) from KPBF Reporting Station
Clear Clear  
Wind Chill:   Ceiling: Unl
Heat Index:   Visibility: 10mi
Dew Point:   Wind: 3mph
Humidity: 86%   Direction: 20°NNE
Pressure: 30.19"   Gusts: NA
Location:  33.99°N, 91.56°W
Report Text: KPBF 231153Z AUTO 02003KT 10SM CLR 09/07 A3019 RMK AO2 SLP222 T00890067 10100 20072 51012
Loading
Personal Weather Stations






























Interactive Weather Map
Tropical Storm Tracking
New forecast layout! Learn more

10-Day Weather Forecast

Advertisements
Track Severe Weather on mobile